KMLJ/MLJ METAR and TAF weather

Enter ICAO airport designator
Station Type Date Time Source
KMLJ METAR 2020/07/11 19:55 UTC NOAA

KMLJ 111955Z AUTO 35005KT 10SM CLR 35/16 A2986 RMK AO2


Station Type Date Time Source
KMLJ Decoded METAR 2020/07/11 19:55 UTC NOAA

Milledgeville, Baldwin County Airport, GA, United States (KMLJ) 33-09-15N 083-14-26W
Jul 11, 2020 - 03:55 PM EDT / 2020.07.11 1955 UTC
Wind: from the N (350 degrees) at 6 MPH (5 KT):0
Visibility: 10 mile(s):0
Sky conditions: clear
Temperature: 95 F (35 C)
Heat index: 95.2 F (35.1 C):1
Dew Point: 60 F (16 C)
Relative Humidity: 32%
Pressure (altimeter): 29.86 in. Hg (1011 hPa)
ob: KMLJ 111955Z AUTO 35005KT 10SM CLR 35/16 A2986 RMK AO2
cycle: 20

Station Type Date Time Source
KMLJ TAF UTC NOAA

Error!

Example: see airport list